Time;durP1;ratioP1;P1;durP2;ratioP2;P2;SDS_P1;SDS_P2;PMS_P1;PMS_P2;Temp;Humidity;BMP_temperature;BMP_pressure;BME280_temperature;BME280_humidity;BME280_pressure;Samples;Min_cycle;Max_cycle;Signal;HPM_P1;HPM_P2
2022/01/13 00:02:12;;;;;;;33.60;18.10;;;4.70;99.90;;;;;;5007904;28;20428;-86
2022/01/13 00:04:38;;;;;;;35.23;19.30;;;4.70;99.90;;;;;;5008100;28;20185;-86
2022/01/13 00:07:05;;;;;;;38.13;18.67;;;4.70;99.90;;;;;;5007680;28;20825;-87
2022/01/13 00:09:30;;;;;;;29.90;17.43;;;4.70;99.90;;;;;;5008119;28;20479;-86
2022/01/13 00:11:57;;;;;;;33.80;18.07;;;4.70;99.90;;;;;;5007825;28;20835;-87
2022/01/13 00:14:40;;;;;;;38.00;19.03;;;4.70;99.90;;;;;;5007950;28;20200;-86
2022/01/13 00:17:22;;;;;;;31.23;17.93;;;4.70;99.90;;;;;;5007597;28;20890;-87
2022/01/13 00:25:37;;;;;;;32.80;17.80;;;4.60;99.90;;;;;;5007735;28;20481;-86
2022/01/13 00:28:12;;;;;;;33.17;20.00;;;4.70;99.90;;;;;;5007237;28;20438;-86
2022/01/13 00:30:39;;;;;;;32.00;19.53;;;4.70;99.90;;;;;;5007779;28;20923;-87
2022/01/13 00:33:05;;;;;;;38.70;20.57;;;4.70;99.90;;;;;;5007679;28;20561;-87
2022/01/13 00:35:30;;;;;;;38.43;19.63;;;4.70;99.90;;;;;;5007744;28;20513;-87
2022/01/13 00:37:56;;;;;;;38.00;18.33;;;4.60;99.90;;;;;;5007542;28;20448;-87
2022/01/13 00:40:22;;;;;;;36.63;20.83;;;4.70;99.90;;;;;;5007445;28;20184;-87
2022/01/13 00:42:47;;;;;;;29.80;15.93;;;4.80;99.90;;;;;;5007802;28;20186;-87
2022/01/13 00:45:14;;;;;;;31.30;18.13;;;4.80;99.90;;;;;;5007549;28;20607;-87
2022/01/13 00:47:41;;;;;;;41.60;18.23;;;4.70;99.90;;;;;;5007395;28;20233;-87
2022/01/13 00:50:07;;;;;;;28.03;17.10;;;4.70;99.90;;;;;;5007787;28;20495;-87
2022/01/13 00:52:33;;;;;;;30.57;17.50;;;4.80;99.90;;;;;;5007486;28;20468;-87
2022/01/13 00:55:03;;;;;;;31.63;18.17;;;4.80;99.90;;;;;;5007475;28;20437;-87
2022/01/13 00:57:31;;;;;;;36.70;19.20;;;4.90;99.90;;;;;;5007339;28;20203;-87
2022/01/13 00:59:58;;;;;;;36.97;18.20;;;4.90;99.90;;;;;;5007388;28;20424;-86
2022/01/13 01:02:24;;;;;;;39.40;20.37;;;4.90;99.90;;;;;;5007550;28;21023;-86
2022/01/13 01:04:50;;;;;;;43.83;21.97;;;4.90;99.90;;;;;;5007483;28;20527;-87
2022/01/13 01:07:15;;;;;;;37.27;20.37;;;4.90;99.90;;;;;;5007087;28;20450;-86
2022/01/13 01:09:48;;;;;;;36.00;19.60;;;4.90;99.90;;;;;;5007517;28;20196;-87
2022/01/13 01:12:15;;;;;;;37.43;19.50;;;4.90;99.90;;;;;;5007263;28;20212;-87
2022/01/13 01:14:47;;;;;;;41.23;22.27;;;4.90;99.90;;;;;;5007378;28;20516;-86
2022/01/13 01:17:17;;;;;;;32.80;19.10;;;5.00;99.90;;;;;;5006917;28;20491;-86
2022/01/13 01:19:49;;;;;;;37.83;19.60;;;5.00;99.90;;;;;;5007354;28;20431;-86
2022/01/13 01:27:44;;;;;;;38.90;18.30;;;4.90;99.90;;;;;;4991765;28;20465;-87
2022/01/13 01:32:49;;;;;;;32.30;18.07;;;4.90;99.90;;;;;;4992169;28;20467;-87
2022/01/13 01:35:16;;;;;;;30.90;17.50;;;4.80;99.90;;;;;;5007439;28;20473;-87
2022/01/13 01:37:43;;;;;;;35.30;18.57;;;4.70;99.90;;;;;;5006982;28;20456;-87
2022/01/13 01:40:11;;;;;;;32.40;18.67;;;4.70;99.90;;;;;;5009847;28;20424;-86
2022/01/13 01:42:37;;;;;;;30.87;18.40;;;4.70;99.90;;;;;;5010772;28;20419;-87
2022/01/13 01:45:05;;;;;;;35.40;17.70;;;4.70;99.90;;;;;;5010531;28;20430;-87
2022/01/13 01:47:32;;;;;;;32.83;17.37;;;4.70;99.90;;;;;;5010309;28;20450;-87
2022/01/13 01:50:08;;;;;;;34.83;18.47;;;4.80;99.90;;;;;;5010584;28;20502;-86
2022/01/13 01:52:34;;;;;;;37.30;20.83;;;4.80;99.90;;;;;;5010443;28;20543;-87
2022/01/13 01:55:00;;;;;;;32.77;17.50;;;4.90;99.90;;;;;;5010507;28;20851;-86
2022/01/13 01:57:26;;;;;;;38.87;18.17;;;4.90;99.90;;;;;;5010096;28;20207;-87
2022/01/13 01:59:53;;;;;;;37.50;18.00;;;4.90;99.90;;;;;;5010081;28;20646;-87
2022/01/13 02:02:20;;;;;;;38.10;18.90;;;4.90;99.90;;;;;;5010247;28;20340;-86
2022/01/13 02:04:46;;;;;;;35.80;19.83;;;4.90;99.90;;;;;;5010265;28;20429;-86
2022/01/13 02:07:13;;;;;;;30.60;18.20;;;4.90;99.90;;;;;;5009979;28;20612;-86
2022/01/13 02:09:41;;;;;;;35.10;18.30;;;4.80;99.90;;;;;;5010254;28;20426;-87
2022/01/13 02:12:13;;;;;;;35.73;17.73;;;4.80;99.90;;;;;;5009793;28;21100;-86
2022/01/13 02:17:37;;;;;;;28.07;17.73;;;4.70;99.90;;;;;;5009360;28;20440;-86
2022/01/13 02:20:04;;;;;;;31.93;16.97;;;4.80;99.90;;;;;;5010141;28;20434;-86
2022/01/13 02:22:30;;;;;;;36.10;19.20;;;4.70;99.90;;;;;;5009771;28;20466;-87
2022/01/13 02:24:56;;;;;;;33.87;17.97;;;4.70;99.90;;;;;;5009954;28;20808;-87
2022/01/13 02:27:22;;;;;;;31.90;17.13;;;4.70;99.90;;;;;;5009478;28;20500;-86
2022/01/13 02:29:49;;;;;;;36.90;18.73;;;4.70;99.90;;;;;;5009865;28;20524;-87
2022/01/13 02:32:17;;;;;;;33.93;18.13;;;4.70;99.90;;;;;;5009510;28;20532;-87
2022/01/13 02:34:43;;;;;;;35.67;19.60;;;4.70;99.90;;;;;;5009774;28;20453;-86
2022/01/13 02:37:09;;;;;;;33.30;18.80;;;4.70;99.90;;;;;;5009497;28;20487;-86
2022/01/13 02:39:35;;;;;;;35.80;17.60;;;4.60;99.90;;;;;;5009545;28;20324;-86
2022/01/13 02:42:03;;;;;;;31.80;18.47;;;4.60;99.90;;;;;;5009620;28;20427;-87
2022/01/13 02:44:30;;;;;;;38.27;20.50;;;4.60;99.90;;;;;;5009498;28;20968;-86
2022/01/13 02:47:20;;;;;;;31.80;19.10;;;4.70;99.90;;;;;;5009206;28;21062;-87
2022/01/13 02:49:46;;;;;;;37.87;20.80;;;4.60;99.90;;;;;;5009360;28;20558;-87
2022/01/13 02:52:12;;;;;;;32.43;17.13;;;4.60;99.90;;;;;;5009391;28;21056;-86
2022/01/13 02:54:37;;;;;;;30.83;17.67;;;4.60;99.90;;;;;;5009308;28;20185;-87
2022/01/13 02:57:03;;;;;;;36.67;18.03;;;4.70;99.90;;;;;;5009035;28;20208;-87
2022/01/13 02:59:29;;;;;;;35.90;19.20;;;4.70;99.90;;;;;;5009267;28;20686;-86
2022/01/13 03:01:55;;;;;;;33.60;18.37;;;4.70;99.90;;;;;;5043920;22;20255;-86
2022/01/13 03:04:22;;;;;;;30.97;18.33;;;4.70;99.90;;;;;;5054066;28;20178;-86
2022/01/13 03:06:47;;;;;;;33.00;16.73;;;4.70;99.90;;;;;;5053068;28;20275;-86
2022/01/13 03:09:13;;;;;;;39.27;18.50;;;4.60;99.90;;;;;;5053102;28;20509;-86
2022/01/13 03:11:39;;;;;;;33.23;18.33;;;4.60;99.90;;;;;;5052680;28;20212;-86
2022/01/13 03:14:10;;;;;;;43.63;20.27;;;4.60;99.90;;;;;;5053124;28;20426;-86
2022/01/13 03:16:41;;;;;;;35.83;19.60;;;4.50;99.90;;;;;;5052765;28;20486;-85
2022/01/13 03:19:07;;;;;;;33.63;17.60;;;4.50;99.90;;;;;;5052854;28;21011;-86
2022/01/13 03:21:33;;;;;;;36.63;16.73;;;4.50;99.90;;;;;;5052716;28;20797;-84
2022/01/13 03:23:58;;;;;;;30.70;17.90;;;4.50;99.90;;;;;;5052695;28;20427;-86
2022/01/13 03:26:24;;;;;;;37.97;20.27;;;4.50;99.90;;;;;;5052541;28;20197;-86
2022/01/13 03:28:51;;;;;;;32.07;18.67;;;4.50;99.90;;;;;;5052770;28;20265;-86
2022/01/13 03:31:26;;;;;;;36.70;20.50;;;4.50;99.90;;;;;;5053723;28;20926;-86
2022/01/13 03:33:53;;;;;;;37.47;21.57;;;4.40;99.90;;;;;;5052788;28;20399;-86
2022/01/13 03:36:20;;;;;;;38.30;19.40;;;4.40;99.90;;;;;;5053905;28;20449;-86
2022/01/13 03:38:46;;;;;;;28.97;17.17;;;4.50;99.90;;;;;;5052525;28;20509;-86
2022/01/13 03:41:13;;;;;;;37.43;19.10;;;4.50;99.90;;;;;;5052844;28;20444;-86
2022/01/13 03:43:38;;;;;;;35.83;19.67;;;4.50;99.90;;;;;;5053950;28;20441;-86
2022/01/13 03:46:05;;;;;;;33.00;17.63;;;4.50;99.90;;;;;;5054642;28;20839;-86
2022/01/13 03:48:30;;;;;;;37.70;18.00;;;4.60;99.90;;;;;;5053268;28;20179;-86
2022/01/13 03:50:56;;;;;;;32.17;18.93;;;4.60;99.90;;;;;;5054023;28;20495;-86
2022/01/13 03:53:28;;;;;;;34.03;18.20;;;4.60;99.90;;;;;;5051867;28;20285;-85
2022/01/13 03:56:11;;;;;;;28.63;17.43;;;4.60;99.90;;;;;;5051981;28;20228;-85
2022/01/13 03:58:46;;;;;;;33.03;17.30;;;4.60;99.90;;;;;;5051741;28;20454;-85
2022/01/13 04:02:01;;;;;;;35.23;21.00;;;4.60;99.90;;;;;;5051417;28;20449;-85
2022/01/13 04:04:28;;;;;;;34.70;17.90;;;4.60;99.90;;;;;;5051817;28;21096;-85
2022/01/13 04:07:07;;;;;;;29.77;15.90;;;4.60;99.90;;;;;;5051589;28;20421;-86
2022/01/13 04:09:32;;;;;;;39.20;18.10;;;4.60;99.90;;;;;;5051739;28;20418;-85
2022/01/13 04:12:03;;;;;;;30.23;15.67;;;4.60;99.90;;;;;;5052924;28;20493;-85
2022/01/13 04:14:37;;;;;;;31.93;17.17;;;4.50;99.90;;;;;;5051615;28;20168;-85
2022/01/13 04:17:03;;;;;;;35.27;17.63;;;4.50;99.90;;;;;;5051362;28;20461;-85
2022/01/13 04:19:29;;;;;;;33.73;17.60;;;4.50;99.90;;;;;;5051397;28;20782;-86
2022/01/13 04:21:54;;;;;;;33.40;17.00;;;4.50;99.90;;;;;;5052484;28;20488;-86
2022/01/13 04:24:20;;;;;;;36.13;18.47;;;4.40;99.90;;;;;;5051240;28;20190;-86
2022/01/13 04:26:46;;;;;;;36.73;19.67;;;4.40;99.90;;;;;;5050989;28;20240;-86
2022/01/13 04:31:39;;;;;;;33.37;18.53;;;4.50;99.90;;;;;;5052425;28;20475;-86
2022/01/13 04:34:05;;;;;;;34.03;17.57;;;4.50;99.90;;;;;;5051051;28;20194;-86
2022/01/13 04:36:30;;;;;;;34.80;18.07;;;4.40;99.90;;;;;;5052037;28;20411;-86
2022/01/13 04:38:56;;;;;;;39.30;18.70;;;4.50;99.90;;;;;;5051004;28;20223;-86
2022/01/13 04:41:34;;;;;;;39.43;20.47;;;4.40;99.90;;;;;;5050968;28;20185;-86
2022/01/13 04:44:00;;;;;;;37.53;21.10;;;4.40;99.90;;;;;;5051296;28;20168;-86
2022/01/13 04:46:26;;;;;;;37.63;19.10;;;4.40;99.90;;;;;;5050929;28;20806;-88
2022/01/13 04:48:52;;;;;;;31.90;18.07;;;4.40;99.90;;;;;;5052169;28;20415;-86
2022/01/13 04:51:18;;;;;;;33.57;17.87;;;4.50;99.90;;;;;;5050787;28;20434;-86
2022/01/13 04:53:44;;;;;;;32.57;18.60;;;4.50;99.90;;;;;;5050842;28;20502;-86
2022/01/13 04:56:14;;;;;;;32.07;16.20;;;4.40;99.90;;;;;;5050793;28;20636;-86
2022/01/13 04:58:40;;;;;;;31.80;16.63;;;4.40;99.90;;;;;;5050676;28;20438;-86
2022/01/13 05:01:05;;;;;;;32.93;17.00;;;4.40;99.90;;;;;;5051978;28;20977;-87
2022/01/13 05:03:31;;;;;;;36.23;17.30;;;4.40;99.90;;;;;;5050497;28;20311;-86
2022/01/13 05:05:57;;;;;;;29.83;18.00;;;4.30;99.90;;;;;;5050684;28;20424;-86
2022/01/13 05:08:22;;;;;;;30.43;15.93;;;4.30;99.90;;;;;;5051468;28;20217;-86
2022/01/13 05:10:48;;;;;;;34.17;18.20;;;4.40;99.90;;;;;;5051349;28;20192;-85
2022/01/13 05:13:14;;;;;;;36.03;18.90;;;4.30;99.90;;;;;;5051047;28;20682;-86
2022/01/13 05:15:42;;;;;;;43.53;20.47;;;4.30;99.90;;;;;;5055044;28;20229;-87
2022/01/13 05:18:46;;;;;;;40.90;19.23;;;4.30;99.90;;;;;;5055966;28;20433;-86
2022/01/13 05:21:06;;;;;;;37.83;19.37;;;4.20;99.90;;;;;;5055959;28;20421;-86
2022/01/13 05:23:32;;;;;;;38.80;19.67;;;4.20;99.90;;;;;;5055221;28;20546;-86
2022/01/13 05:25:58;;;;;;;39.07;17.97;;;4.10;99.90;;;;;;5054949;28;20532;-86
2022/01/13 05:28:24;;;;;;;42.80;19.90;;;4.10;99.90;;;;;;5054843;28;20425;-86
2022/01/13 05:30:50;;;;;;;43.10;18.83;;;4.10;99.90;;;;;;5054612;28;20414;-86
2022/01/13 05:33:16;;;;;;;35.93;19.93;;;4.10;99.90;;;;;;5054818;28;20465;-86
2022/01/13 05:35:42;;;;;;;42.40;19.83;;;4.00;99.90;;;;;;5054687;28;20487;-86
2022/01/13 05:38:09;;;;;;;37.37;18.20;;;4.00;99.90;;;;;;5054724;28;20266;-87
2022/01/13 05:40:36;;;;;;;34.40;18.23;;;4.00;99.90;;;;;;5054863;28;20236;-86
2022/01/13 05:43:03;;;;;;;41.27;18.63;;;3.90;99.90;;;;;;5054336;28;20450;-86
2022/01/13 05:45:29;;;;;;;41.10;19.77;;;3.90;99.90;;;;;;5055963;28;20454;-86
2022/01/13 05:47:57;;;;;;;37.27;20.00;;;3.90;99.90;;;;;;5054210;28;20444;-86
2022/01/13 05:50:24;;;;;;;40.90;17.80;;;3.90;99.90;;;;;;5054530;28;20433;-86
2022/01/13 05:52:50;;;;;;;39.63;19.73;;;3.90;99.90;;;;;;5055520;28;20520;-86
2022/01/13 05:55:21;;;;;;;42.17;19.63;;;3.80;99.90;;;;;;5054607;28;20427;-86
2022/01/13 05:57:47;;;;;;;44.43;18.27;;;3.80;99.90;;;;;;5054276;28;20256;-86
2022/01/13 06:00:16;;;;;;;37.30;19.80;;;3.80;99.90;;;;;;5055557;28;20505;-87
2022/01/13 06:02:41;;;;;;;39.53;20.17;;;3.90;99.90;;;;;;5054139;28;20473;-86
2022/01/13 06:05:08;;;;;;;34.50;18.40;;;3.70;99.90;;;;;;5054036;28;20798;-86
2022/01/13 06:07:35;;;;;;;41.63;20.20;;;3.70;99.90;;;;;;5053887;28;20179;-86
2022/01/13 06:10:01;;;;;;;36.03;20.70;;;3.60;99.90;;;;;;5054414;28;20430;-87
2022/01/13 06:12:35;;;;;;;44.60;19.30;;;3.60;99.90;;;;;;5055298;28;20462;-86
2022/01/13 06:15:12;;;;;;;35.87;17.90;;;3.50;99.90;;;;;;5055136;28;20402;-86
2022/01/13 06:17:40;;;;;;;42.87;19.17;;;3.50;99.90;;;;;;5054251;28;20663;-86
2022/01/13 06:20:08;;;;;;;35.50;17.37;;;3.60;99.90;;;;;;5055540;28;20410;-86
2022/01/13 06:22:34;;;;;;;36.00;17.67;;;3.60;99.90;;;;;;5054508;28;20539;-86
2022/01/13 06:25:01;;;;;;;38.70;18.60;;;3.50;99.90;;;;;;5054023;28;20497;-86
2022/01/13 06:27:27;;;;;;;43.23;20.17;;;3.50;99.90;;;;;;5053830;28;20507;-86
2022/01/13 06:29:53;;;;;;;48.37;21.50;;;3.50;99.90;;;;;;5054033;28;20482;-86
2022/01/13 06:32:20;;;;;;;41.53;19.87;;;3.60;99.90;;;;;;5053944;28;20488;-85
2022/01/13 06:34:46;;;;;;;39.50;20.03;;;3.50;99.90;;;;;;5054633;28;20458;-86
2022/01/13 06:40:17;;;;;;;41.17;20.67;;;3.40;99.90;;;;;;5055650;28;20178;-87
2022/01/13 06:42:43;;;;;;;41.00;20.60;;;3.40;99.90;;;;;;5053811;28;20449;-86
2022/01/13 06:45:13;;;;;;;51.90;20.87;;;3.20;99.90;;;;;;5055466;28;20207;-86
2022/01/13 06:47:54;;;;;;;51.00;22.40;;;3.20;99.90;;;;;;5053985;28;20639;-86
2022/01/13 06:50:19;;;;;;;51.33;21.97;;;3.10;99.90;;;;;;5053446;28;20480;-86
2022/01/13 06:52:47;;;;;;;54.83;23.70;;;3.20;99.90;;;;;;5053555;28;20477;-86
2022/01/13 06:55:13;;;;;;;51.73;25.37;;;3.20;99.90;;;;;;5053863;28;20183;-86
2022/01/13 06:57:38;;;;;;;51.40;24.60;;;3.30;99.90;;;;;;5053536;28;21019;-86
2022/01/13 07:00:05;;;;;;;50.10;25.07;;;3.30;99.90;;;;;;5053671;28;20815;-86
2022/01/13 07:02:32;;;;;;;50.03;25.90;;;3.20;99.90;;;;;;5053444;28;20593;-86
2022/01/13 07:04:57;;;;;;;45.20;25.47;;;3.20;99.90;;;;;;5053696;28;20843;-86
2022/01/13 07:07:33;;;;;;;57.47;24.60;;;3.20;99.90;;;;;;5054540;28;20977;-87
2022/01/13 07:10:00;;;;;;;53.40;26.90;;;3.30;99.90;;;;;;5053735;28;20278;-86
2022/01/13 07:12:26;;;;;;;58.03;25.83;;;3.30;99.90;;;;;;5053113;28;20566;-87
2022/01/13 07:14:52;;;;;;;54.33;24.80;;;3.30;99.90;;;;;;5053485;28;20859;-86
2022/01/13 07:17:17;;;;;;;54.70;25.70;;;3.40;99.90;;;;;;5052942;28;20229;-86
2022/01/13 07:19:45;;;;;;;48.73;24.27;;;3.40;99.90;;;;;;5054407;28;20175;-86
2022/01/13 07:22:11;;;;;;;50.60;26.17;;;3.50;99.90;;;;;;5053037;28;20249;-86
2022/01/13 07:24:37;;;;;;;49.80;23.30;;;3.50;99.90;;;;;;5053391;28;20422;-86
2022/01/13 07:27:03;;;;;;;52.43;23.27;;;3.50;99.90;;;;;;5052660;28;20198;-86
2022/01/13 07:29:28;;;;;;;55.97;25.67;;;3.50;99.90;;;;;;5052989;28;20189;-87
2022/01/13 07:31:54;;;;;;;56.53;26.07;;;3.50;99.90;;;;;;5053222;28;20211;-86
2022/01/13 07:34:19;;;;;;;60.13;25.53;;;3.60;99.90;;;;;;5053981;28;20172;-86
2022/01/13 07:36:45;;;;;;;56.20;26.90;;;3.50;99.90;;;;;;5053071;28;20185;-86
2022/01/13 07:39:11;;;;;;;60.33;25.63;;;3.50;99.90;;;;;;5052778;28;20183;-87
2022/01/13 07:41:37;;;;;;;54.87;25.50;;;3.50;99.90;;;;;;5052257;28;20204;-86
2022/01/13 07:44:04;;;;;;;57.13;25.70;;;3.50;99.90;;;;;;5052373;28;20248;-86
2022/01/13 07:46:30;;;;;;;67.03;29.50;;;3.50;99.90;;;;;;5052049;28;20807;-86
2022/01/13 07:48:56;;;;;;;64.43;28.00;;;3.40;99.90;;;;;;5052196;28;20505;-88
2022/01/13 07:51:22;;;;;;;62.57;24.60;;;3.50;99.90;;;;;;5051776;28;20206;-87
2022/01/13 07:53:48;;;;;;;53.43;24.70;;;3.50;99.90;;;;;;5052086;28;20203;-87
2022/01/13 07:56:13;;;;;;;54.23;24.37;;;3.50;99.90;;;;;;5051996;28;20422;-86
2022/01/13 07:58:40;;;;;;;62.90;27.40;;;3.40;99.90;;;;;;5051585;28;20624;-87
2022/01/13 08:01:06;;;;;;;60.83;26.50;;;3.40;99.90;;;;;;5051934;28;20186;-87
2022/01/13 08:03:32;;;;;;;55.07;23.30;;;3.50;99.90;;;;;;5051803;28;20462;-86
2022/01/13 08:05:58;;;;;;;58.40;27.00;;;3.40;99.90;;;;;;5051591;28;20428;-86
2022/01/13 08:08:25;;;;;;;51.43;24.43;;;3.30;99.90;;;;;;5051503;28;20183;-87
2022/01/13 08:10:50;;;;;;;57.97;24.57;;;3.30;99.90;;;;;;5052902;28;20457;-87
2022/01/13 08:13:16;;;;;;;57.10;27.30;;;3.30;99.90;;;;;;5051891;28;20536;-88
2022/01/13 08:15:41;;;;;;;57.10;24.10;;;3.40;99.90;;;;;;5051715;28;20198;-87
2022/01/13 08:20:51;;;;;;;63.50;24.67;;;3.50;99.90;;;;;;5053143;28;20232;-86
2022/01/13 08:23:17;;;;;;;56.87;25.23;;;3.60;99.90;;;;;;5051683;28;20460;-87
2022/01/13 08:25:42;;;;;;;61.40;25.43;;;3.60;99.90;;;;;;5052809;28;20191;-87
2022/01/13 08:28:08;;;;;;;56.53;22.87;;;3.60;99.90;;;;;;5051304;28;20194;-87
2022/01/13 08:30:34;;;;;;;62.67;26.93;;;3.60;99.90;;;;;;5052766;28;20698;-87
2022/01/13 08:33:00;;;;;;;61.43;26.10;;;3.60;99.90;;;;;;5051026;28;20469;-87
2022/01/13 08:35:25;;;;;;;51.67;23.40;;;3.60;99.90;;;;;;5045815;28;20184;-87
2022/01/13 08:37:51;;;;;;;57.03;25.40;;;3.60;99.90;;;;;;5031228;28;20173;-86
2022/01/13 08:40:16;;;;;;;64.87;27.10;;;3.70;99.90;;;;;;5032378;28;20187;-87
2022/01/13 08:42:42;;;;;;;56.90;24.23;;;3.80;99.90;;;;;;5031166;28;20311;-87
2022/01/13 08:45:10;;;;;;;54.97;23.50;;;3.90;99.90;;;;;;5031276;28;20188;-87
2022/01/13 08:47:36;;;;;;;52.47;25.60;;;3.80;99.90;;;;;;5031395;28;20185;-88
2022/01/13 08:50:05;;;;;;;48.27;22.67;;;3.80;99.90;;;;;;5035363;28;20510;-86
2022/01/13 08:52:33;;;;;;;57.60;24.00;;;3.80;99.90;;;;;;5035237;28;20219;-87
2022/01/13 08:54:59;;;;;;;58.80;23.97;;;3.70;99.90;;;;;;5036411;28;20912;-87
2022/01/13 08:57:25;;;;;;;58.67;22.93;;;3.60;99.90;;;;;;5034984;28;20412;-87
2022/01/13 08:59:51;;;;;;;55.00;26.37;;;3.70;99.90;;;;;;5035104;28;20423;-87
2022/01/13 09:04:50;;;;;;;52.07;24.80;;;3.70;99.90;;;;;;5052721;28;20289;-84
2022/01/13 09:07:16;;;;;;;48.50;22.67;;;3.80;99.90;;;;;;5036855;28;20449;-84
2022/01/13 09:09:41;;;;;;;45.70;23.40;;;3.70;99.90;;;;;;5038006;28;20406;-83
2022/01/13 09:12:08;;;;;;;56.63;22.53;;;3.70;99.90;;;;;;5037407;28;20464;-83
2022/01/13 09:14:34;;;;;;;45.80;21.10;;;3.80;99.90;;;;;;5037788;28;20176;-84
2022/01/13 09:17:00;;;;;;;49.67;22.37;;;3.70;99.90;;;;;;5037342;28;20449;-85
2022/01/13 09:19:26;;;;;;;49.10;23.20;;;3.60;99.90;;;;;;5038060;28;20180;-83
2022/01/13 09:21:52;;;;;;;47.10;24.63;;;3.70;99.90;;;;;;5039112;28;20433;-85
2022/01/13 09:24:21;;;;;;;60.07;25.10;;;3.70;99.90;;;;;;5037720;28;20271;-86
2022/01/13 09:26:47;;;;;;;60.43;25.40;;;3.80;99.90;;;;;;5024715;28;20490;-88
2022/01/13 09:29:14;;;;;;;47.73;22.23;;;3.80;99.90;;;;;;5017066;28;21181;-87
2022/01/13 09:31:41;;;;;;;47.47;21.60;;;3.60;99.90;;;;;;5017888;28;20458;-87
2022/01/13 09:34:08;;;;;;;56.83;25.43;;;3.70;99.90;;;;;;5017883;28;20425;-88
2022/01/13 09:36:34;;;;;;;48.53;21.63;;;3.70;99.90;;;;;;5017591;28;20458;-88
2022/01/13 09:39:02;;;;;;;53.77;24.37;;;3.70;99.90;;;;;;5017912;28;20415;-88
2022/01/13 09:41:30;;;;;;;46.50;23.47;;;3.70;99.90;;;;;;5021325;28;20553;-88
2022/01/13 09:43:57;;;;;;;55.00;23.53;;;3.80;99.90;;;;;;5018744;28;20429;-88
2022/01/13 09:46:26;;;;;;;43.37;22.10;;;3.90;99.90;;;;;;5017645;28;20513;-88
2022/01/13 09:48:52;;;;;;;53.50;21.30;;;3.90;99.90;;;;;;5017955;28;20418;-88
2022/01/13 09:51:18;;;;;;;43.60;21.80;;;4.00;99.90;;;;;;5017809;28;20426;-87
2022/01/13 09:53:44;;;;;;;42.83;20.27;;;4.00;99.90;;;;;;5017364;28;20423;-88
2022/01/13 09:56:10;;;;;;;52.37;22.67;;;4.00;99.90;;;;;;5018696;28;20225;-86
2022/01/13 09:58:36;;;;;;;44.03;19.03;;;4.10;99.90;;;;;;5036088;28;20579;-84
2022/01/13 10:01:03;;;;;;;43.37;21.60;;;4.10;99.90;;;;;;5027805;28;20421;-84
2022/01/13 10:03:29;;;;;;;47.07;21.50;;;4.20;99.90;;;;;;5036662;28;20823;-84
2022/01/13 10:06:00;;;;;;;43.20;22.37;;;4.20;99.90;;;;;;5036304;28;20429;-84
2022/01/13 10:08:54;;;;;;;46.87;21.40;;;4.30;99.90;;;;;;5036739;28;20870;-84
2022/01/13 10:11:33;;;;;;;49.37;25.30;;;4.40;99.90;;;;;;5051586;28;20420;-84
2022/01/13 10:14:09;;;;;;;40.43;19.50;;;4.50;99.90;;;;;;5037778;28;20419;-84
2022/01/13 10:16:49;;;;;;;44.33;21.63;;;4.60;99.90;;;;;;5037602;28;20430;-84
2022/01/13 10:19:42;;;;;;;45.07;21.30;;;4.80;99.90;;;;;;5036709;28;20419;-85
2022/01/13 10:22:14;;;;;;;40.97;18.40;;;5.10;99.90;;;;;;5036335;28;20424;-84
2022/01/13 10:24:45;;;;;;;40.23;20.10;;;5.30;99.90;;;;;;5036667;28;20538;-84
2022/01/13 10:27:13;;;;;;;44.27;19.43;;;5.40;99.90;;;;;;5035751;28;20830;-84
2022/01/13 10:29:47;;;;;;;41.27;19.60;;;5.50;99.90;;;;;;5036719;28;20424;-84
2022/01/13 10:32:16;;;;;;;36.60;19.03;;;5.60;99.90;;;;;;5035851;28;20467;-84
2022/01/13 10:34:44;;;;;;;38.50;18.90;;;5.80;99.90;;;;;;5036105;28;20460;-84
2022/01/13 10:37:19;;;;;;;40.60;21.40;;;6.00;99.90;;;;;;5035699;28;20437;-84
2022/01/13 10:39:50;;;;;;;32.57;17.50;;;6.10;99.90;;;;;;5036525;28;20426;-84
2022/01/13 10:45:11;;;;;;;34.20;18.17;;;6.00;99.90;;;;;;5053850;28;20420;-84
2022/01/13 10:47:39;;;;;;;34.87;17.50;;;6.00;99.90;;;;;;5035392;28;20464;-84
2022/01/13 10:50:11;;;;;;;39.80;20.23;;;6.10;99.90;;;;;;5035694;28;20434;-84
2022/01/13 10:52:37;;;;;;;35.60;18.07;;;6.10;99.90;;;;;;5035834;28;20515;-85
2022/01/13 10:55:14;;;;;;;37.47;19.10;;;6.20;99.90;;;;;;5036251;28;20416;-84
2022/01/13 10:57:42;;;;;;;29.40;17.80;;;6.30;99.90;;;;;;5035543;28;20449;-84
2022/01/13 11:00:22;;;;;;;30.27;17.23;;;6.30;99.90;;;;;;5035720;28;20948;-84
2022/01/13 11:03:12;;;;;;;31.90;16.57;;;6.50;99.90;;;;;;5035594;28;20855;-84
2022/01/13 11:05:45;;;;;;;29.27;17.00;;;6.50;99.90;;;;;;5035103;28;20907;-84
2022/01/13 11:08:11;;;;;;;30.87;16.70;;;6.60;99.90;;;;;;5034835;28;20525;-85
2022/01/13 11:10:40;;;;;;;32.17;17.87;;;6.60;99.90;;;;;;5035045;28;20418;-84
2022/01/13 11:13:15;;;;;;;31.33;17.33;;;6.70;99.90;;;;;;5034818;28;20474;-84
2022/01/13 11:15:45;;;;;;;30.67;15.93;;;6.80;99.90;;;;;;5034882;28;20421;-84
2022/01/13 11:18:11;;;;;;;33.30;16.77;;;6.70;99.90;;;;;;5035124;28;20438;-84
2022/01/13 11:20:38;;;;;;;28.30;16.23;;;6.80;99.90;;;;;;5034394;28;20418;-84
2022/01/13 11:23:03;;;;;;;32.50;16.63;;;7.50;99.90;;;;;;5035014;28;20418;-84
2022/01/13 11:25:29;;;;;;;31.43;17.43;;;8.90;99.90;;;;;;5034246;28;20453;-84
2022/01/13 11:27:56;;;;;;;29.50;17.30;;;10.20;99.90;;;;;;5034689;28;20207;-84
2022/01/13 11:30:25;;;;;;;34.67;18.47;;;11.10;99.90;;;;;;5034731;28;20595;-84
2022/01/13 11:32:51;;;;;;;31.37;16.80;;;11.20;99.90;;;;;;5034445;28;20522;-85
2022/01/13 11:35:28;;;;;;;31.57;18.20;;;11.50;99.90;;;;;;5034366;28;20426;-85
2022/01/13 11:37:56;;;;;;;30.20;17.33;;;12.00;99.90;;;;;;5034401;28;20445;-85
2022/01/13 11:40:28;;;;;;;29.37;17.50;;;12.50;99.90;;;;;;5034332;28;20483;-84
2022/01/13 11:42:55;;;;;;;26.67;16.00;;;14.40;99.90;;;;;;5030754;28;20859;-86
2022/01/13 11:45:22;;;;;;;27.80;15.97;;;14.50;99.90;;;;;;5033638;28;20560;-86
2022/01/13 11:47:51;;;;;;;30.30;16.03;;;;;;;;;;5033534;28;20480;-86
2022/01/13 11:50:23;;;;;;;27.70;16.10;;;15.70;99.90;;;;;;5029235;28;20847;-86
2022/01/13 11:52:53;;;;;;;25.57;15.90;;;17.20;99.90;;;;;;5033735;28;20501;-86
2022/01/13 11:55:22;;;;;;;25.33;15.37;;;19.00;96.40;;;;;;5025292;28;21005;-86
2022/01/13 11:57:48;;;;;;;24.97;16.43;;;20.00;86.00;;;;;;5025207;28;20814;-87
2022/01/13 12:00:25;;;;;;;24.50;15.07;;;21.00;80.40;;;;;;5020787;28;20439;-86
2022/01/13 12:02:51;;;;;;;22.50;14.60;;;21.70;74.10;;;;;;5027117;28;20442;-86
2022/01/13 12:05:22;;;;;;;22.67;14.87;;;21.90;66.60;;;;;;5032847;28;20426;-88
2022/01/13 12:07:53;;;;;;;29.93;15.27;;;21.80;65.50;;;;;;5051698;28;20551;-87
2022/01/13 12:10:38;;;;;;;21.83;14.30;;;22.00;62.90;;;;;;5033882;28;20434;-87
2022/01/13 12:13:28;;;;;;;21.40;13.40;;;22.90;57.90;;;;;;5034106;28;20842;-87
2022/01/13 12:15:55;;;;;;;24.53;13.67;;;23.20;55.90;;;;;;5033914;28;20418;-87
2022/01/13 12:18:46;;;;;;;18.87;12.70;;;22.50;53.70;;;;;;5033937;28;20438;-87
2022/01/13 12:21:39;;;;;;;19.67;12.53;;;21.60;55.70;;;;;;5033704;28;20446;-87
2022/01/13 12:24:07;;;;;;;22.30;13.73;;;20.40;55.20;;;;;;5033820;28;20461;-87
2022/01/13 12:26:32;;;;;;;21.93;12.90;;;19.60;57.30;;;;;;5033539;28;20438;-87
2022/01/13 12:29:29;;;;;;;20.47;12.80;;;18.90;58.90;;;;;;5034180;28;20421;-87
2022/01/13 12:31:59;;;;;;;19.37;11.67;;;18.40;61.70;;;;;;5041805;28;20219;-87
2022/01/13 12:34:29;;;;;;;21.40;12.87;;;18.50;63.20;;;;;;5033701;28;20442;-86
2022/01/13 12:37:19;;;;;;;21.40;13.37;;;19.20;62.70;;;;;;5032433;28;20889;-87
2022/01/13 12:39:56;;;;;;;20.63;12.20;;;20.00;61.20;;;;;;5050474;28;20429;-86
2022/01/13 12:42:28;;;;;;;18.57;12.30;;;20.10;61.00;;;;;;5033856;28;20784;-86
2022/01/13 12:47:40;;;;;;;17.93;12.57;;;21.70;57.30;;;;;;5052149;28;20582;-87
2022/01/13 12:50:15;;;;;;;20.87;13.83;;;21.70;55.00;;;;;;5033754;28;20406;-86
2022/01/13 12:52:41;;;;;;;21.40;11.80;;;20.20;56.20;;;;;;5033566;28;20472;-86
2022/01/13 12:55:07;;;;;;;23.40;13.60;;;18.70;58.10;;;;;;5033652;28;20838;-86
2022/01/13 12:57:33;;;;;;;23.97;14.67;;;17.40;60.20;;;;;;5029577;28;20596;-86
2022/01/13 12:59:59;;;;;;;21.43;13.20;;;17.40;65.20;;;;;;5026576;28;20427;-86
2022/01/13 13:02:24;;;;;;;19.00;12.60;;;17.70;65.30;;;;;;5025138;28;20675;-86
2022/01/13 13:04:50;;;;;;;24.03;12.93;;;18.20;64.90;;;;;;5033715;28;20426;-86
2022/01/13 13:07:16;;;;;;;26.80;13.77;;;18.50;64.70;;;;;;5033580;28;20306;-86
2022/01/13 13:09:42;;;;;;;21.20;14.73;;;19.20;64.20;;;;;;5033837;28;20245;-86
2022/01/13 13:12:13;;;;;;;22.23;14.17;;;20.20;63.10;;;;;;5033905;28;20458;-86
2022/01/13 13:17:37;;;;;;;19.50;12.80;;;22.10;57.50;;;;;;5051689;28;20484;-87
2022/01/13 13:20:09;;;;;;;20.60;14.00;;;22.50;55.20;;;;;;5033645;28;20421;-87